createdAt,value
2022-11-17T00:01:06.869Z,36.80
2022-11-17T00:03:14.967Z,34.13
2022-11-17T00:05:19.592Z,29.58
2022-11-17T00:07:23.099Z,38.25
2022-11-17T00:09:26.992Z,35.15
2022-11-17T00:11:50.454Z,30.83
2022-11-17T00:14:13.714Z,32.78
2022-11-17T00:16:18.893Z,33.67
2022-11-17T00:18:39.356Z,30.55
2022-11-17T00:21:01.121Z,32.63
2022-11-17T00:23:08.279Z,35.95
2022-11-17T00:25:11.809Z,33.58
2022-11-17T00:27:14.998Z,30.92
2022-11-17T00:29:18.191Z,31.75
2022-11-17T00:31:39.170Z,35.17
2022-11-17T00:33:59.979Z,25.90
2022-11-17T00:36:04.851Z,29.05
2022-11-17T00:38:17.265Z,32.63
2022-11-17T00:40:20.580Z,29.95
2022-11-17T00:42:24.145Z,40.60
2022-11-17T00:44:27.980Z,38.78
2022-11-17T00:46:31.538Z,36.17
2022-11-17T00:48:34.829Z,40.33
2022-11-17T00:50:38.072Z,43.40
2022-11-17T00:52:42.737Z,36.28
2022-11-17T00:54:46.145Z,35.47
2022-11-17T00:56:49.672Z,34.90
2022-11-17T00:58:53.750Z,33.33
2022-11-17T01:00:57.076Z,25.27
2022-11-17T01:03:00.322Z,25.75
2022-11-17T01:05:03.586Z,28.85
2022-11-17T01:07:07.023Z,32.30
2022-11-17T01:09:14.173Z,31.75
2022-11-17T01:11:20.066Z,31.95
2022-11-17T01:13:23.619Z,30.60
2022-11-17T01:15:26.910Z,33.55
2022-11-17T01:17:30.201Z,33.40
2022-11-17T01:19:33.598Z,34.65
2022-11-17T01:21:36.997Z,35.35
2022-11-17T01:23:41.323Z,36.40
2022-11-17T01:25:46.439Z,27.48
2022-11-17T01:27:49.767Z,30.13
2022-11-17T01:29:53.063Z,31.15
2022-11-17T01:31:56.307Z,33.10
2022-11-17T01:34:00.215Z,37.67
2022-11-17T01:36:05.019Z,34.55
2022-11-17T01:38:08.204Z,39.75
2022-11-17T01:40:14.484Z,51.80
2022-11-17T01:42:21.202Z,50.83
2022-11-17T01:44:58.700Z,45.10
2022-11-17T01:47:05.571Z,46.92
2022-11-17T01:49:14.373Z,47.83
2022-11-17T01:51:18.250Z,43.50
2022-11-17T01:53:23.370Z,42.70
2022-11-17T01:55:30.376Z,35.85
2022-11-17T01:57:40.452Z,38.03
2022-11-17T01:59:47.584Z,46.90
2022-11-17T02:01:56.935Z,32.83
2022-11-17T02:04:00.743Z,42.40
2022-11-17T02:06:08.941Z,39.22
2022-11-17T02:08:13.472Z,37.10
2022-11-17T02:10:17.419Z,30.27
2022-11-17T02:12:25.935Z,40.85
2022-11-17T02:14:30.659Z,32.55
2022-11-17T02:16:34.042Z,36.03
2022-11-17T02:18:37.338Z,35.10
2022-11-17T02:20:54.658Z,36.78
2022-11-17T02:23:26.592Z,29.65
2022-11-17T02:25:46.656Z,33.28
2022-11-17T02:28:05.099Z,30.17
2022-11-17T02:30:11.861Z,32.10
2022-11-17T02:32:22.864Z,31.13
2022-11-17T02:34:33.699Z,30.70
2022-11-17T02:36:43.458Z,27.70
2022-11-17T02:38:55.219Z,28.83
2022-11-17T02:41:08.299Z,35.58
2022-11-17T02:43:35.498Z,30.65
2022-11-17T02:45:43.395Z,29.08
2022-11-17T02:47:49.252Z,28.45
2022-11-17T02:49:57.458Z,28.30
2022-11-17T02:52:02.635Z,27.30
2022-11-17T02:54:06.495Z,33.33
2022-11-17T02:56:09.858Z,29.30
2022-11-17T02:58:14.502Z,25.75
2022-11-17T03:00:20.119Z,26.50
2022-11-17T03:02:37.620Z,25.65
2022-11-17T03:04:51.563Z,26.23
2022-11-17T03:07:01.634Z,29.40
2022-11-17T03:09:14.624Z,25.65
2022-11-17T03:11:26.045Z,28.98
2022-11-17T03:13:39.532Z,35.63
2022-11-17T03:15:50.551Z,29.33
2022-11-17T03:18:04.616Z,32.08
2022-11-17T03:20:15.473Z,30.95
2022-11-17T03:22:25.460Z,28.80
2022-11-17T03:24:33.671Z,25.75
2022-11-17T03:26:40.502Z,29.75
2022-11-17T03:28:47.486Z,27.73
2022-11-17T03:30:52.859Z,31.70
2022-11-17T03:32:59.787Z,26.73
2022-11-17T03:35:06.690Z,33.38
2022-11-17T03:37:14.134Z,31.65
2022-11-17T03:39:23.766Z,28.58
2022-11-17T03:41:29.871Z,26.40
2022-11-17T03:43:33.963Z,31.50
2022-11-17T03:45:42.389Z,27.55
2022-11-17T03:47:46.753Z,27.02
2022-11-17T03:49:54.755Z,28.63
2022-11-17T03:51:58.936Z,24.63
2022-11-17T03:54:02.816Z,25.38
2022-11-17T03:56:17.407Z,35.35
2022-11-17T03:58:23.067Z,29.48
2022-11-17T04:00:26.509Z,25.23
2022-11-17T04:02:31.162Z,24.50
2022-11-17T04:04:48.200Z,27.95
2022-11-17T04:06:53.316Z,25.85
2022-11-17T04:08:56.637Z,23.55
2022-11-17T04:11:17.594Z,25.17
2022-11-17T04:13:38.380Z,23.70
2022-11-17T04:16:01.653Z,29.60
2022-11-17T04:18:06.718Z,28.60
2022-11-17T04:20:11.483Z,23.75
2022-11-17T04:22:14.691Z,24.90
2022-11-17T04:24:18.468Z,23.50
2022-11-17T04:26:39.040Z,19.08
2022-11-17T04:28:45.950Z,24.95
2022-11-17T04:30:49.087Z,25.88
2022-11-17T04:32:52.737Z,21.80
2022-11-17T04:34:57.272Z,22.42
2022-11-17T04:37:05.307Z,17.83
2022-11-17T04:39:10.751Z,23.33
2022-11-17T04:41:32.620Z,29.52
2022-11-17T04:43:36.202Z,20.95
2022-11-17T04:45:39.594Z,24.35
2022-11-17T04:47:43.015Z,19.23
2022-11-17T04:49:46.309Z,21.60
2022-11-17T04:51:52.062Z,23.95
2022-11-17T04:53:55.248Z,24.85
2022-11-17T04:56:01.172Z,23.33
2022-11-17T04:58:04.354Z,16.75
2022-11-17T05:00:09.211Z,17.60
2022-11-17T05:02:12.703Z,21.10
2022-11-17T05:04:38.488Z,18.95
2022-11-17T05:06:43.793Z,22.45
2022-11-17T05:08:49.107Z,22.90
2022-11-17T05:11:09.809Z,26.23
2022-11-17T05:13:25.583Z,25.50
2022-11-17T05:15:42.572Z,25.00
2022-11-17T05:17:45.809Z,23.45
2022-11-17T05:19:49.997Z,26.88
2022-11-17T05:21:52.502Z,24.30
2022-11-17T05:23:57.157Z,27.83
2022-11-17T05:25:59.431Z,21.20
2022-11-17T05:28:06.331Z,21.20
2022-11-17T05:30:10.965Z,25.95
2022-11-17T05:32:14.154Z,25.95
2022-11-17T05:34:18.688Z,21.80
2022-11-17T05:36:22.507Z,29.60
2022-11-17T05:38:25.751Z,28.35
2022-11-17T05:40:30.326Z,27.85
2022-11-17T05:42:35.601Z,25.33
2022-11-17T05:44:40.123Z,23.50
2022-11-17T05:46:43.307Z,21.33
2022-11-17T05:48:46.895Z,19.60
2022-11-17T05:50:50.083Z,19.13
2022-11-17T05:52:53.311Z,22.58
2022-11-17T05:54:56.537Z,21.75
2022-11-17T05:57:04.401Z,20.98
2022-11-17T05:59:27.521Z,27.70
2022-11-17T06:01:34.939Z,21.30
2022-11-17T06:03:42.090Z,21.73
2022-11-17T06:05:45.684Z,25.27
2022-11-17T06:07:49.635Z,37.03
2022-11-17T06:09:53.475Z,30.58
2022-11-17T06:12:02.458Z,39.90
2022-11-17T06:14:10.209Z,30.38
2022-11-17T06:16:15.937Z,26.48
2022-11-17T06:18:24.520Z,34.28
2022-11-17T06:20:32.013Z,76.00
2022-11-17T06:22:35.780Z,99.85
2022-11-17T06:24:40.437Z,40.40
2022-11-17T06:26:44.080Z,28.08
2022-11-17T06:28:50.798Z,41.45
2022-11-17T06:30:55.729Z,69.53
2022-11-17T06:33:00.964Z,35.83
2022-11-17T06:35:07.428Z,68.18
2022-11-17T06:37:11.361Z,83.20
2022-11-17T06:39:14.620Z,131.85
2022-11-17T06:41:17.811Z,118.75
2022-11-17T06:43:21.610Z,92.72
2022-11-17T06:45:24.876Z,153.00
2022-11-17T06:47:29.521Z,37.90
2022-11-17T06:49:32.875Z,45.30
2022-11-17T06:51:38.866Z,108.65
2022-11-17T06:53:44.318Z,136.45
2022-11-17T06:55:50.037Z,61.63
2022-11-17T06:57:53.829Z,59.95
2022-11-17T06:59:57.376Z,21.92
2022-11-17T07:02:00.968Z,48.65
2022-11-17T07:04:06.904Z,39.53
2022-11-17T07:06:11.627Z,54.15
2022-11-17T07:08:15.306Z,39.70
2022-11-17T07:10:19.342Z,33.90
2022-11-17T07:12:22.779Z,34.13
2022-11-17T07:14:26.008Z,27.58
2022-11-17T07:16:30.954Z,21.50
2022-11-17T07:18:34.701Z,20.60
2022-11-17T07:20:39.563Z,22.25
2022-11-17T07:22:45.781Z,20.60
2022-11-17T07:24:49.018Z,17.73
2022-11-17T07:26:52.310Z,29.87
2022-11-17T07:28:55.574Z,19.20
2022-11-17T07:31:03.295Z,18.80
2022-11-17T07:33:06.704Z,16.88
2022-11-17T07:35:10.694Z,16.67
2022-11-17T07:37:15.517Z,13.40
2022-11-17T07:39:21.720Z,15.20
2022-11-17T07:41:25.432Z,16.13
2022-11-17T07:43:28.971Z,14.73
2022-11-17T07:45:32.553Z,13.67
2022-11-17T07:47:35.851Z,14.40
2022-11-17T07:49:39.451Z,13.63
2022-11-17T07:51:42.748Z,12.50
2022-11-17T07:53:47.363Z,12.80
2022-11-17T07:55:50.793Z,13.37
2022-11-17T07:57:58.458Z,12.60
2022-11-17T08:00:01.796Z,12.50
2022-11-17T08:02:05.092Z,13.83
2022-11-17T08:04:08.526Z,12.83
2022-11-17T08:06:12.151Z,11.70
2022-11-17T08:08:15.470Z,10.97
2022-11-17T08:10:20.342Z,11.77
2022-11-17T08:12:23.758Z,12.07
2022-11-17T08:14:27.023Z,11.37
2022-11-17T08:16:31.045Z,11.63
2022-11-17T08:18:35.319Z,13.80
2022-11-17T08:20:39.050Z,11.97
2022-11-17T08:22:42.416Z,11.40
2022-11-17T08:24:45.605Z,10.80
2022-11-17T08:26:50.177Z,10.50
2022-11-17T08:28:58.210Z,10.67
2022-11-17T08:31:02.464Z,10.40
2022-11-17T08:33:05.843Z,12.17
2022-11-17T08:35:09.503Z,10.27
2022-11-17T08:37:12.738Z,10.97
2022-11-17T08:39:16.143Z,11.70
2022-11-17T08:41:19.938Z,11.73
2022-11-17T08:43:24.835Z,10.67
2022-11-17T08:45:28.102Z,11.70
2022-11-17T08:47:31.625Z,10.77
2022-11-17T08:49:34.893Z,12.83
2022-11-17T08:51:38.144Z,13.50
2022-11-17T08:53:41.676Z,11.20
2022-11-17T08:55:45.659Z,12.33
2022-11-17T08:57:49.014Z,10.60
2022-11-17T08:59:54.012Z,11.73
2022-11-17T09:01:57.285Z,11.80
2022-11-17T09:04:00.691Z,12.33
2022-11-17T09:06:06.408Z,12.10
2022-11-17T09:08:43.463Z,11.20
2022-11-17T09:10:34.120Z,13.00
2022-11-17T09:12:37.390Z,13.00
2022-11-17T09:14:40.603Z,12.37
2022-11-17T09:16:45.569Z,11.97
2022-11-17T09:18:49.108Z,12.10
2022-11-17T09:20:52.364Z,12.60
2022-11-17T09:22:55.626Z,12.87
2022-11-17T09:24:58.864Z,12.00
2022-11-17T09:27:03.198Z,12.60
2022-11-17T09:29:06.386Z,12.13
2022-11-17T09:31:10.396Z,15.40
2022-11-17T09:33:14.973Z,11.70
2022-11-17T09:35:19.185Z,12.03
2022-11-17T09:37:22.720Z,13.20
2022-11-17T09:39:26.353Z,10.97
2022-11-17T09:41:35.651Z,13.03
2022-11-17T09:43:47.317Z,13.47
2022-11-17T09:45:52.567Z,11.47
2022-11-17T09:48:18.482Z,11.47
2022-11-17T09:50:28.489Z,11.10
2022-11-17T09:52:37.611Z,14.73
2022-11-17T09:54:46.444Z,14.30
2022-11-17T09:56:50.133Z,12.70
2022-11-17T09:58:56.685Z,12.73
2022-11-17T10:01:00.446Z,14.20
2022-11-17T10:03:03.876Z,13.03
2022-11-17T10:05:07.896Z,16.67
2022-11-17T10:07:12.898Z,15.63
2022-11-17T10:09:25.966Z,13.33
2022-11-17T10:11:35.275Z,15.50
2022-11-17T10:13:38.680Z,14.33
2022-11-17T10:15:47.138Z,13.90
2022-11-17T10:17:51.794Z,13.70
2022-11-17T10:19:55.114Z,12.33
2022-11-17T10:22:21.109Z,14.07
2022-11-17T10:24:39.244Z,11.17
2022-11-17T10:26:50.681Z,13.57
2022-11-17T10:29:09.007Z,12.27
2022-11-17T10:31:14.993Z,13.93
2022-11-17T10:33:18.781Z,13.00
2022-11-17T10:35:24.154Z,13.27
2022-11-17T10:37:31.958Z,14.23
2022-11-17T10:39:36.767Z,12.57
2022-11-17T10:41:42.484Z,13.33
2022-11-17T10:43:53.676Z,12.60
2022-11-17T10:45:59.725Z,12.40
2022-11-17T10:48:10.707Z,14.53
2022-11-17T10:50:25.183Z,11.90
2022-11-17T10:52:29.858Z,15.30
2022-11-17T10:54:33.149Z,14.03
2022-11-17T10:56:42.554Z,12.60
2022-11-17T10:59:02.357Z,12.50
2022-11-17T11:01:06.082Z,10.77
2022-11-17T11:03:19.789Z,10.40
2022-11-17T11:05:23.181Z,10.30
2022-11-17T11:07:26.471Z,11.10
2022-11-17T11:09:31.936Z,11.00
2022-11-17T11:11:44.477Z,13.13
2022-11-17T11:13:53.795Z,16.43
2022-11-17T11:15:57.191Z,17.70
2022-11-17T11:18:00.533Z,12.80
2022-11-17T11:20:04.338Z,12.07
2022-11-17T11:22:28.072Z,12.87
2022-11-17T11:24:40.892Z,12.63
2022-11-17T11:26:53.940Z,12.87
2022-11-17T11:29:08.592Z,13.83
2022-11-17T11:31:20.798Z,10.83
2022-11-17T11:33:35.560Z,10.13
2022-11-17T11:35:53.023Z,18.33
2022-11-17T11:38:06.299Z,9.53
2022-11-17T11:40:21.895Z,10.90
2022-11-17T11:42:41.857Z,10.77
2022-11-17T11:45:14.283Z,9.33
2022-11-17T11:47:34.010Z,9.23
2022-11-17T11:49:43.745Z,10.40
2022-11-17T11:51:49.956Z,10.27
2022-11-17T11:53:58.824Z,9.20
2022-11-17T11:56:11.249Z,9.57
2022-11-17T11:58:20.819Z,9.77
2022-11-17T12:00:24.592Z,9.37
2022-11-17T12:02:36.229Z,12.10
2022-11-17T12:04:45.209Z,8.00
2022-11-17T12:06:54.875Z,15.10
2022-11-17T12:09:12.145Z,9.73
2022-11-17T12:11:31.695Z,11.30
2022-11-17T12:13:37.665Z,9.77
2022-11-17T12:15:43.894Z,11.23
2022-11-17T12:18:01.127Z,15.27
2022-11-17T12:20:10.835Z,16.63
2022-11-17T12:22:25.585Z,14.03
2022-11-17T12:24:34.607Z,16.63
2022-11-17T12:26:39.796Z,15.43
2022-11-17T12:28:43.160Z,11.70
2022-11-17T12:30:55.074Z,11.73
2022-11-17T12:32:59.321Z,13.00
2022-11-17T12:35:25.826Z,15.93
2022-11-17T12:37:29.932Z,15.50
2022-11-17T12:39:54.923Z,13.67
2022-11-17T12:42:09.685Z,15.40
2022-11-17T12:44:28.131Z,14.87
2022-11-17T12:46:34.149Z,15.00
2022-11-17T12:48:39.905Z,13.87
2022-11-17T12:50:52.051Z,14.97
2022-11-17T12:53:22.046Z,18.43
2022-11-17T12:55:39.881Z,15.97
2022-11-17T12:57:46.977Z,15.53
2022-11-17T13:00:11.089Z,17.50
2022-11-17T13:02:39.588Z,15.47
2022-11-17T13:04:49.658Z,15.50
2022-11-17T13:07:04.102Z,15.13
2022-11-17T13:09:08.384Z,14.97
2022-11-17T13:11:17.699Z,15.90
2022-11-17T13:13:24.694Z,16.43
2022-11-17T13:15:28.125Z,16.33
2022-11-17T13:17:34.615Z,15.20
2022-11-17T13:19:40.484Z,17.60
2022-11-17T13:21:47.033Z,16.97
2022-11-17T13:23:50.361Z,15.83
2022-11-17T13:26:10.050Z,22.10
2022-11-17T13:28:28.701Z,17.13
2022-11-17T13:30:33.899Z,22.30
2022-11-17T13:32:40.184Z,22.23
2022-11-17T13:34:49.115Z,21.30
2022-11-17T13:36:57.574Z,18.43
2022-11-17T13:39:01.891Z,18.83
2022-11-17T13:41:06.956Z,16.00
2022-11-17T13:43:14.667Z,25.83
2022-11-17T13:45:19.593Z,22.50
2022-11-17T13:47:28.795Z,23.43
2022-11-17T13:49:34.614Z,18.50
2022-11-17T13:51:47.675Z,19.13
2022-11-17T13:53:54.561Z,20.40
2022-11-17T13:55:59.173Z,16.97
2022-11-17T13:58:04.352Z,21.70
2022-11-17T14:00:18.780Z,17.53
2022-11-17T14:02:27.705Z,15.83
2022-11-17T14:04:31.181Z,18.80
2022-11-17T14:06:53.999Z,17.80
2022-11-17T14:09:05.235Z,20.43
2022-11-17T14:11:14.064Z,18.77
2022-11-17T14:13:30.526Z,18.37
2022-11-17T14:15:38.736Z,20.43
2022-11-17T14:17:42.568Z,18.53
2022-11-17T14:19:46.041Z,16.03
2022-11-17T14:22:00.614Z,23.10
2022-11-17T14:24:07.366Z,16.30
2022-11-17T14:26:19.963Z,18.10
2022-11-17T14:28:24.224Z,16.73
2022-11-17T14:30:27.769Z,16.17
2022-11-17T14:32:34.796Z,18.43
2022-11-17T14:34:38.066Z,17.30
2022-11-17T14:36:42.151Z,17.20
2022-11-17T14:38:45.849Z,22.17
2022-11-17T14:40:51.586Z,17.53
2022-11-17T14:42:55.250Z,18.77
2022-11-17T14:44:58.474Z,17.33
2022-11-17T14:47:01.771Z,18.13
2022-11-17T14:49:07.015Z,23.20
2022-11-17T14:51:10.290Z,17.53
2022-11-17T14:53:13.784Z,20.17
2022-11-17T14:55:17.083Z,17.43
2022-11-17T14:57:20.316Z,18.83
2022-11-17T14:59:23.557Z,15.20
2022-11-17T15:01:30.632Z,15.93
2022-11-17T15:03:34.067Z,15.77
2022-11-17T15:05:45.509Z,18.10
2022-11-17T15:07:48.714Z,15.80
2022-11-17T15:09:52.037Z,14.50
2022-11-17T15:11:55.217Z,15.53
2022-11-17T15:14:03.287Z,14.43
2022-11-17T15:16:07.219Z,16.10
2022-11-17T15:18:12.635Z,14.53
2022-11-17T15:20:16.068Z,19.37
2022-11-17T15:22:20.781Z,31.77
2022-11-17T15:24:24.328Z,20.00
2022-11-17T15:26:27.555Z,23.23
2022-11-17T15:28:30.858Z,26.57
2022-11-17T15:30:34.360Z,30.17
2022-11-17T15:32:38.312Z,25.10
2022-11-17T15:34:41.711Z,26.20
2022-11-17T15:36:45.209Z,33.30
2022-11-17T15:38:50.201Z,35.13
2022-11-17T15:40:54.999Z,29.90
2022-11-17T15:42:58.549Z,28.03
2022-11-17T15:45:01.843Z,30.63
2022-11-17T15:47:05.334Z,30.70
2022-11-17T15:49:08.622Z,26.97
2022-11-17T15:51:13.661Z,27.40
2022-11-17T15:53:16.938Z,30.50
2022-11-17T15:55:21.668Z,26.57
2022-11-17T15:57:24.963Z,23.85
2022-11-17T15:59:28.243Z,24.40
2022-11-17T16:01:32.905Z,24.67
2022-11-17T16:03:36.570Z,22.70
2022-11-17T16:05:39.853Z,23.60
2022-11-17T16:07:43.326Z,27.65
2022-11-17T16:09:49.252Z,23.90
2022-11-17T16:11:55.296Z,29.23
2022-11-17T16:13:59.838Z,27.58
2022-11-17T16:16:03.378Z,28.77
2022-11-17T16:18:06.705Z,33.22
2022-11-17T16:20:12.133Z,33.83
2022-11-17T16:22:15.536Z,33.75
2022-11-17T16:24:19.009Z,34.20
2022-11-17T16:26:23.882Z,38.38
2022-11-17T16:28:28.439Z,33.92
2022-11-17T16:30:35.289Z,27.63
2022-11-17T16:32:38.844Z,30.05
2022-11-17T16:34:43.678Z,34.50
2022-11-17T16:36:46.937Z,33.20
2022-11-17T16:39:01.798Z,32.28
2022-11-17T16:41:05.627Z,40.53
2022-11-17T16:43:11.761Z,41.05
2022-11-17T16:45:16.646Z,37.38
2022-11-17T16:47:20.002Z,30.05
2022-11-17T16:49:23.397Z,29.55
2022-11-17T16:51:26.652Z,32.70
2022-11-17T16:53:29.914Z,30.73
2022-11-17T16:55:36.313Z,33.72
2022-11-17T16:57:39.521Z,36.95
2022-11-17T16:59:42.689Z,42.33
2022-11-17T17:01:47.712Z,45.47
2022-11-17T17:03:51.404Z,36.15
2022-11-17T17:05:54.796Z,41.85
2022-11-17T17:07:58.191Z,51.13
2022-11-17T17:10:01.889Z,49.08
2022-11-17T17:12:05.673Z,44.03
2022-11-17T17:14:12.664Z,51.38
2022-11-17T17:16:17.831Z,40.58
2022-11-17T17:18:22.594Z,49.65
2022-11-17T17:20:25.760Z,45.50
2022-11-17T17:22:29.071Z,50.55
2022-11-17T17:24:32.324Z,43.30
2022-11-17T17:26:36.721Z,48.28
2022-11-17T17:28:43.756Z,50.42
2022-11-17T17:30:55.253Z,48.70
2022-11-17T17:32:58.462Z,48.92
2022-11-17T17:35:03.089Z,42.97
2022-11-17T17:37:06.402Z,49.65
2022-11-17T17:39:10.085Z,46.30
2022-11-17T17:41:15.010Z,42.80
2022-11-17T17:43:18.248Z,44.22
2022-11-17T17:45:21.576Z,52.30
2022-11-17T17:47:24.946Z,44.92
2022-11-17T17:49:28.261Z,36.20
2022-11-17T17:51:33.098Z,41.53
2022-11-17T17:53:37.542Z,45.22
2022-11-17T17:55:40.749Z,48.10
2022-11-17T17:57:44.038Z,42.35
2022-11-17T17:59:48.399Z,41.20
2022-11-17T18:01:52.128Z,44.15
2022-11-17T18:04:01.205Z,54.35
2022-11-17T18:06:04.674Z,53.92
2022-11-17T18:08:09.396Z,45.83
2022-11-17T18:10:12.584Z,39.35
2022-11-17T18:12:16.078Z,42.97
2022-11-17T18:14:22.542Z,51.10
2022-11-17T18:16:28.197Z,42.33
2022-11-17T18:18:31.577Z,47.20
2022-11-17T18:20:34.971Z,47.05
2022-11-17T18:22:38.597Z,45.60
2022-11-17T18:24:43.289Z,46.45
2022-11-17T18:26:46.477Z,43.83
2022-11-17T18:28:53.400Z,43.47
2022-11-17T18:30:56.849Z,40.90
2022-11-17T18:33:02.966Z,39.13
2022-11-17T18:35:07.751Z,47.25
2022-11-17T18:37:11.169Z,40.72
2022-11-17T18:39:16.129Z,45.72
2022-11-17T18:41:22.236Z,36.50
2022-11-17T18:43:25.748Z,38.28
2022-11-17T18:45:30.640Z,33.83
2022-11-17T18:47:33.968Z,35.40
2022-11-17T18:49:37.204Z,32.88
2022-11-17T18:51:41.632Z,40.42
2022-11-17T18:53:45.078Z,34.03
2022-11-17T18:55:48.356Z,35.70
2022-11-17T18:57:53.006Z,38.28
2022-11-17T18:59:56.328Z,34.67
2022-11-17T19:02:00.176Z,37.30
2022-11-17T19:04:03.513Z,31.33
2022-11-17T19:06:08.235Z,33.42
2022-11-17T19:08:11.506Z,36.20
2022-11-17T19:10:14.872Z,32.50
2022-11-17T19:12:19.014Z,31.23
2022-11-17T19:14:23.996Z,32.55
2022-11-17T19:16:28.192Z,40.67
2022-11-17T19:18:31.384Z,28.65
2022-11-17T19:20:34.856Z,34.45
2022-11-17T19:22:38.141Z,30.15
2022-11-17T19:24:43.368Z,27.55
2022-11-17T19:26:47.505Z,32.20
2022-11-17T19:28:51.130Z,34.33
2022-11-17T19:31:00.962Z,34.38
2022-11-17T19:33:04.545Z,29.98
2022-11-17T19:35:15.740Z,30.25
2022-11-17T19:37:21.949Z,33.85
2022-11-17T19:39:25.648Z,31.35
2022-11-17T19:41:30.676Z,25.30
2022-11-17T19:43:37.917Z,33.13
2022-11-17T19:45:43.841Z,35.40
2022-11-17T19:47:48.534Z,33.55
2022-11-17T19:49:51.870Z,30.75
2022-11-17T19:51:55.313Z,29.65
2022-11-17T19:54:00.517Z,33.92
2022-11-17T19:56:03.949Z,32.80
2022-11-17T19:58:07.267Z,33.70
2022-11-17T20:00:12.273Z,33.55
2022-11-17T20:02:15.889Z,33.85
2022-11-17T20:04:20.782Z,33.92
2022-11-17T20:06:27.249Z,38.25
2022-11-17T20:08:31.574Z,30.98
2022-11-17T20:10:35.316Z,36.80
2022-11-17T20:12:38.555Z,31.45
2022-11-17T20:14:41.752Z,37.42
2022-11-17T20:16:45.037Z,36.33
2022-11-17T20:18:51.322Z,38.90
2022-11-17T20:20:56.057Z,38.63
2022-11-17T20:22:59.437Z,35.30
2022-11-17T20:25:05.413Z,30.15
2022-11-17T20:27:08.656Z,27.75
2022-11-17T20:29:11.964Z,33.17
2022-11-17T20:31:17.255Z,32.50
2022-11-17T20:33:20.765Z,34.55
2022-11-17T20:35:24.155Z,34.25
2022-11-17T20:37:28.836Z,30.92
2022-11-17T20:39:32.176Z,34.47
2022-11-17T20:41:35.543Z,37.35
2022-11-17T20:43:38.833Z,33.10
2022-11-17T20:45:42.149Z,27.35
2022-11-17T20:47:45.436Z,38.30
2022-11-17T20:49:48.784Z,37.40
2022-11-17T20:51:52.327Z,37.30
2022-11-17T20:53:57.151Z,41.85
2022-11-17T20:56:01.763Z,40.65
2022-11-17T20:58:05.161Z,42.88
2022-11-17T21:00:09.739Z,37.30
2022-11-17T21:02:13.238Z,33.33
2022-11-17T21:04:16.870Z,35.70
2022-11-17T21:06:23.068Z,34.72
2022-11-17T21:08:27.403Z,30.00
2022-11-17T21:10:32.295Z,30.40
2022-11-17T21:12:36.107Z,33.67
2022-11-17T21:14:39.475Z,37.50
2022-11-17T21:16:45.778Z,33.45
2022-11-17T21:18:49.942Z,37.72
2022-11-17T21:20:53.350Z,39.88
2022-11-17T21:22:56.728Z,37.88
2022-11-17T21:25:00.033Z,40.08
2022-11-17T21:27:05.040Z,42.40
2022-11-17T21:29:08.334Z,41.80
2022-11-17T21:31:13.908Z,46.00
2022-11-17T21:33:17.161Z,46.97
2022-11-17T21:35:20.714Z,39.90
2022-11-17T21:37:24.307Z,41.00
2022-11-17T21:39:27.750Z,39.72
2022-11-17T21:41:34.753Z,37.22
2022-11-17T21:43:40.705Z,34.58
2022-11-17T21:45:44.068Z,35.22
2022-11-17T21:47:47.502Z,41.10
2022-11-17T21:49:50.735Z,39.90
2022-11-17T21:51:54.117Z,29.15
2022-11-17T21:53:59.264Z,36.63
2022-11-17T21:56:02.929Z,27.17
2022-11-17T21:58:06.119Z,28.88
2022-11-17T22:00:12.247Z,24.50
2022-11-17T22:02:15.580Z,27.15
2022-11-17T22:04:19.375Z,23.42
2022-11-17T22:06:24.616Z,25.60
2022-11-17T22:08:28.046Z,25.95
2022-11-17T22:10:31.252Z,26.80
2022-11-17T22:12:34.558Z,26.63
2022-11-17T22:14:37.756Z,32.60
2022-11-17T22:16:44.135Z,28.45
2022-11-17T22:18:47.360Z,26.17
2022-11-17T22:20:52.991Z,23.05
2022-11-17T22:22:58.143Z,34.10
2022-11-17T22:25:22.882Z,28.27
2022-11-17T22:27:26.374Z,30.48
2022-11-17T22:29:29.613Z,27.58
2022-11-17T22:31:33.222Z,29.55
2022-11-17T22:33:40.182Z,27.92
2022-11-17T22:35:44.285Z,28.05
2022-11-17T22:37:47.601Z,28.98
2022-11-17T22:39:50.937Z,31.05
2022-11-17T22:41:54.278Z,28.83
2022-11-17T22:43:58.684Z,27.85
2022-11-17T22:46:03.416Z,25.63
2022-11-17T22:48:07.402Z,23.48
2022-11-17T22:50:12.347Z,21.98
2022-11-17T22:52:15.681Z,22.88
2022-11-17T22:54:18.970Z,27.15
2022-11-17T22:56:22.197Z,21.30
2022-11-17T22:58:26.016Z,21.58
2022-11-17T23:00:29.313Z,26.70
2022-11-17T23:02:32.552Z,20.92
2022-11-17T23:04:36.705Z,25.25
2022-11-17T23:06:41.278Z,24.98
2022-11-17T23:08:44.725Z,21.58
2022-11-17T23:10:47.981Z,21.98
2022-11-17T23:12:51.745Z,21.98
2022-11-17T23:14:58.200Z,20.65
2022-11-17T23:17:01.461Z,24.23
2022-11-17T23:19:05.746Z,18.73
2022-11-17T23:21:11.288Z,23.35
2022-11-17T23:23:16.333Z,19.63
2022-11-17T23:25:19.639Z,20.30
2022-11-17T23:27:22.914Z,21.67
2022-11-17T23:29:26.636Z,17.58
2022-11-17T23:31:30.433Z,19.17
2022-11-17T23:33:35.261Z,18.83
2022-11-17T23:35:38.545Z,21.23
2022-11-17T23:37:41.938Z,21.02
2022-11-17T23:39:46.763Z,19.38
2022-11-17T23:41:50.100Z,19.15
2022-11-17T23:43:54.726Z,21.83
2022-11-17T23:45:58.339Z,22.27
2022-11-17T23:48:01.584Z,21.13
2022-11-17T23:50:05.158Z,17.08
2022-11-17T23:52:08.422Z,19.23
2022-11-17T23:54:13.483Z,20.10
2022-11-17T23:56:18.988Z,20.50
2022-11-17T23:58:22.639Z,27.50
